• Join FlightAware (Why Join?)
  • Login
  • US Flag 
12:24AM EDT


 

Airport Tracker/Info


-or-


 

Live Flight TrackerFlight Track Log ✈ N43812 ✈ 06-May-2013 ✈ KBTP - KUNV

Flight Track Log - Related Links

Times and Time Zones

All times are in EDT time to prevent confusion due to time zone crossing. See the N43812 flight status page for this flight to view local times or setup timezone preferences in your user account.

Time Position Orientation Groundspeed Altitude Reporting Facility
EDT Latitude Longitude Course Direction KTS MPH feet Rate Location/Type
10:41AM 40.7856 -79.7850 87° East 106 122 3,500  Level Cleveland Center
10:42AM 40.7875 -79.7467 86° East 106 122 3,900 480 Climbing Cleveland Center
10:43AM 40.7894 -79.7139 86° East 101 116 4,500 420 Climbing Cleveland Center
10:45AM 40.7851 -79.6397 88° East  Level FlightAware Approximate
10:46AM 40.7925 -79.6014 88° East 102 117 5,800  Level Cleveland Center
10:47AM 40.7772 -79.9355 87° East  Level Estimated
10:47AM 40.7944 -79.5628 86° East 107 123 6,300  Level Cleveland Center
10:48AM 40.7961 -79.5272 86° East 102 117 6,800 480 Climbing Cleveland Center
10:49AM 40.7978 -79.4942 86° East 97 112 7,300 300 Climbing Cleveland Center
10:50AM 40.7994 -79.4531 87° East 97 112 7,500 60 Climbing Cleveland Center
10:52AM 40.7996 -79.3796 90° East  Level FlightAware Approximate
10:52AM 40.8028 -79.3708 90° East 109 125 7,500  Level Cleveland Center
10:53AM 40.8025 -79.3297 90° East 104 120 7,500  Level Cleveland Center
10:54AM 40.8061 -79.2856 84° East 104 120 7,600  Climbing Cleveland Center
10:56AM 40.8092 -79.2006 87° East 104 120 7,500  Descending Cleveland Center
10:57AM 40.8108 -79.1567 87° East 104 120 7,600  Climbing Cleveland Center
10:59AM 40.8005 -79.0828 88° East  Level FlightAware Approximate
10:59AM 40.8139 -79.0714 88° East 104 120 7,600  Level Cleveland Center
11:00AM 40.8153 -79.0275 88° East 109 125 7,600  Level Cleveland Center
11:02AM 40.8164 -78.9508 89° East 109 125 7,600  Level Cleveland Center
11:03AM 40.8178 -78.8986 88° East 120 138 7,600  Level Cleveland Center
11:05AM 40.8203 -78.8011 88° East 135 155 7,600  Level New York Center
11:06AM 40.8211 -78.7600 88° East 123 142 7,600  Level New York Center
11:07AM 40.8239 -78.7192 85° East 118 136 7,600  Level New York Center
11:08AM 40.8247 -78.6753 89° East 118 136 7,600  Level New York Center
11:10AM 40.8167 -78.6036 90° East  Level FlightAware Approximate
11:10AM 40.8283 -78.5881 90° East 123 142 7,600  Level New York Center
11:12AM 40.8297 -78.5031 89° East 123 142 7,600  Level New York Center
11:14AM 40.8314 -78.4153 89° East 123 142 7,600 -1,080 Level New York Center
11:16AM 40.8328 -78.3436 89° East  Level FlightAware Approximate
11:16AM 40.8669 -78.3783 89° East 97 112 3,500  Level New York Center
11:17AM 40.8681 -78.4250 272° West 75 86 3,500  Level New York Center
11:18AM 40.8575 -78.3964 116° Southeast 21 24 3,500  Level New York Center
11:20AM 40.8439 -78.3326 106° East  Level FlightAware Approximate
11:21AM 40.8617 -78.2678 88° East 144 166 3,500  Level New York Center
11:23AM 40.8628 -78.1828 89° East 110 127 3,500  Level New York Center
11:25AM 40.8658 -78.1008 87° East 105 121 3,500  Level New York Center
11:26AM 40.8661 -78.0625 89° East 105 121 3,500  Level New York Center
11:27AM 40.8355 -78.0251 88° East  Level FlightAware Approximate
11:27AM 40.8664 -78.0214 89° East 105 121 3,500  Level New York Center
11:29AM 40.8654 -77.9520 91° East  Level FlightAware Approximate
11:32AM 40.8706 -77.8158 91° East 105 121 3,500  Level New York Center
11:33AM 40.8708 -77.7747 89° East 105 121 3,500 -180 Level New York Center
11:35AM 40.8690 -77.7069 92° East  Level FlightAware Approximate
11:35AM 40.8719 -77.6869 92° East 105 121 3,100  Level New York Center
11:36AM 40.8605 -77.6320 91° East  Level FlightAware Approximate
11:36AM 40.8722 -77.6458 89° East 105 121 3,100  Level New York Center
11:37AM 40.8597 -77.5862 91° East  Level FlightAware Approximate
11:38AM 40.8697 -77.5773 93° East  Level FlightAware Approximate
11:39AM 40.8731 -77.5222 93° East 105 121 3,200  Level New York Center
11:41AM 40.8758 -77.4375 87° East 105 121 3,100 60 Descending New York Center
11:43AM 40.8744 -77.4619 266° West 22 25 3,500  Climbing New York Center
11:45AM 40.8676 -77.5245 262° West  Level FlightAware Approximate
11:48AM 40.8603 -77.6719 217° Southwest 121 139 3,200  Level New York Center
11:52AM 40.8491 -77.8176 217° Southwest  Level FlightAware Approximate
11:53AM 40.8333 -77.8333 217° Southwest  Level FlightAware Approximate
11:54AM 40.8493 -77.8487 217° Southwest  Level Estimated